createdAt,value
2018-05-02T00:00:10.091Z,99.90
2018-05-02T00:02:38.387Z,99.90
2018-05-02T00:05:06.625Z,99.90
2018-05-02T00:07:34.940Z,99.90
2018-05-02T00:10:02.433Z,99.90
2018-05-02T00:12:29.944Z,99.90
2018-05-02T00:14:58.209Z,99.90
2018-05-02T00:17:25.700Z,99.90
2018-05-02T00:19:53.170Z,99.90
2018-05-02T00:22:20.691Z,99.90
2018-05-02T00:24:48.975Z,99.90
2018-05-02T00:27:16.481Z,99.90
2018-05-02T00:29:43.961Z,99.90
2018-05-02T00:32:11.477Z,99.90
2018-05-02T00:34:38.945Z,99.90
2018-05-02T00:37:06.452Z,99.90
2018-05-02T00:39:34.705Z,99.90
2018-05-02T00:42:02.325Z,99.90
2018-05-02T00:44:29.809Z,99.90
2018-05-02T00:46:57.283Z,99.90
2018-05-02T00:49:24.773Z,99.90
2018-05-02T00:51:53.024Z,99.90
2018-05-02T00:54:20.543Z,99.90
2018-05-02T00:56:48.015Z,99.90
2018-05-02T00:59:15.530Z,99.90
2018-05-02T01:01:43.786Z,99.90
2018-05-02T01:04:12.072Z,99.90
2018-05-02T01:06:40.298Z,99.90
2018-05-02T01:09:07.810Z,99.90
2018-05-02T01:11:36.070Z,99.90
2018-05-02T01:14:04.352Z,99.90
2018-05-02T01:16:32.642Z,99.90
2018-05-02T01:19:00.142Z,99.90
2018-05-02T01:21:27.680Z,99.90
2018-05-02T01:23:55.192Z,99.90
2018-05-02T01:26:22.677Z,99.90
2018-05-02T01:28:50.190Z,99.90
2018-05-02T01:31:17.682Z,99.90
2018-05-02T01:33:45.963Z,99.90
2018-05-02T01:36:14.218Z,99.90
2018-05-02T01:38:41.689Z,99.90
2018-05-02T01:41:09.966Z,99.90
2018-05-02T01:43:38.202Z,99.90
2018-05-02T01:46:05.697Z,99.90
2018-05-02T01:48:33.955Z,99.90
2018-05-02T01:51:01.458Z,99.90
2018-05-02T01:53:28.958Z,99.90
2018-05-02T01:55:56.467Z,99.90
2018-05-02T01:58:23.947Z,99.90
2018-05-02T02:00:51.487Z,99.90
2018-05-02T02:03:19.720Z,99.90
2018-05-02T02:05:47.215Z,99.90
2018-05-02T02:08:14.733Z,99.90
2018-05-02T02:10:42.250Z,99.90
2018-05-02T02:13:09.737Z,99.90
2018-05-02T02:15:37.334Z,99.90
2018-05-02T02:18:05.586Z,99.90
2018-05-02T02:20:33.135Z,99.90
2018-05-02T02:23:00.617Z,99.90
2018-05-02T02:25:28.105Z,99.90
2018-05-02T02:27:55.644Z,99.90
2018-05-02T02:30:23.882Z,99.90
2018-05-02T02:32:51.369Z,99.90
2018-05-02T02:35:19.636Z,99.90
2018-05-02T02:37:47.902Z,99.90
2018-05-02T02:40:15.389Z,99.90
2018-05-02T02:42:42.954Z,99.90
2018-05-02T02:45:11.214Z,99.90
2018-05-02T02:47:38.703Z,99.90
2018-05-02T02:50:06.189Z,99.90
2018-05-02T02:52:33.702Z,99.90
2018-05-02T02:55:01.944Z,99.90
2018-05-02T02:57:29.458Z,99.90
2018-05-02T02:59:56.922Z,99.90
2018-05-02T03:02:24.440Z,99.90
2018-05-02T03:04:52.690Z,99.90
2018-05-02T03:07:20.191Z,99.90
2018-05-02T03:09:48.423Z,99.90
2018-05-02T03:12:15.915Z,99.90
2018-05-02T03:14:44.151Z,99.90
2018-05-02T03:17:12.414Z,99.90
2018-05-02T03:19:39.890Z,99.90
2018-05-02T03:22:07.411Z,99.90
2018-05-02T03:24:34.873Z,99.90
2018-05-02T03:27:02.460Z,99.90
2018-05-02T03:29:29.886Z,99.90
2018-05-02T03:31:57.366Z,99.90
2018-05-02T03:34:24.860Z,99.90
2018-05-02T03:36:52.365Z,99.90
2018-05-02T03:39:19.852Z,99.90
2018-05-02T03:41:47.341Z,99.90
2018-05-02T03:44:15.635Z,99.90
2018-05-02T03:46:43.119Z,99.90
2018-05-02T03:49:10.634Z,99.90
2018-05-02T03:51:38.900Z,99.90
2018-05-02T03:54:06.400Z,99.90
2018-05-02T03:56:33.880Z,99.90
2018-05-02T03:59:01.371Z,99.90
2018-05-02T04:01:40.654Z,99.90
2018-05-02T04:04:20.078Z,99.90
2018-05-02T04:09:44.063Z,99.90
2018-05-02T04:12:17.595Z,99.90
2018-05-02T04:14:45.087Z,99.90
2018-05-02T04:17:12.563Z,99.90
2018-05-02T04:19:40.073Z,99.90
2018-05-02T04:22:07.551Z,99.90
2018-05-02T04:24:35.051Z,99.90
2018-05-02T04:27:02.530Z,99.90
2018-05-02T04:29:30.031Z,99.90
2018-05-02T04:31:57.524Z,99.90
2018-05-02T04:34:25.075Z,99.90
2018-05-02T04:36:53.321Z,99.90
2018-05-02T04:39:20.837Z,99.90
2018-05-02T04:41:48.343Z,99.90
2018-05-02T04:44:15.860Z,99.90
2018-05-02T04:46:43.470Z,99.90
2018-05-02T04:49:10.948Z,99.90
2018-05-02T04:51:39.237Z,99.90
2018-05-02T04:54:06.707Z,99.90
2018-05-02T04:56:34.201Z,99.90
2018-05-02T04:59:01.693Z,99.90
2018-05-02T05:01:29.976Z,99.90
2018-05-02T05:03:58.250Z,99.90
2018-05-02T05:06:26.529Z,99.90
2018-05-02T05:08:54.761Z,99.90
2018-05-02T05:11:22.310Z,99.90
2018-05-02T05:13:49.780Z,99.90
2018-05-02T05:16:17.322Z,99.90
2018-05-02T05:18:44.802Z,99.90
2018-05-02T05:21:12.298Z,99.90
2018-05-02T05:23:40.579Z,99.90
2018-05-02T05:26:08.806Z,99.90
2018-05-02T05:28:36.314Z,99.90
2018-05-02T05:31:03.802Z,99.90
2018-05-02T05:33:31.303Z,99.90
2018-05-02T05:35:58.822Z,99.90
2018-05-02T05:38:26.406Z,99.90
2018-05-02T05:40:53.954Z,99.90
2018-05-02T05:43:21.501Z,99.90
2018-05-02T05:45:49.123Z,99.90
2018-05-02T05:48:16.928Z,99.90
2018-05-02T05:50:44.424Z,99.90
2018-05-02T05:53:11.955Z,99.90
2018-05-02T05:55:39.427Z,99.90
2018-05-02T05:58:06.931Z,99.90
2018-05-02T06:00:34.419Z,99.90
2018-05-02T06:03:01.891Z,99.90
2018-05-02T06:05:29.417Z,99.90
2018-05-02T06:07:56.918Z,99.90
2018-05-02T06:10:24.411Z,99.90
2018-05-02T06:12:52.643Z,99.90
2018-05-02T06:15:20.152Z,99.90
2018-05-02T06:17:47.630Z,99.90
2018-05-02T06:20:15.119Z,99.90
2018-05-02T06:22:42.593Z,99.90
2018-05-02T06:25:10.095Z,99.90
2018-05-02T06:27:37.570Z,99.90
2018-05-02T06:30:05.071Z,99.90
2018-05-02T06:32:32.555Z,99.90
2018-05-02T06:35:00.066Z,99.90
2018-05-02T06:37:27.539Z,99.90
2018-05-02T06:39:55.051Z,99.90
2018-05-02T06:42:22.572Z,99.90
2018-05-02T06:44:50.839Z,99.90
2018-05-02T06:47:19.071Z,99.90
2018-05-02T06:49:46.551Z,99.90
2018-05-02T06:52:14.052Z,99.90
2018-05-02T06:54:42.394Z,99.90
2018-05-02T06:57:10.587Z,99.90
2018-05-02T06:59:38.039Z,99.90
2018-05-02T07:02:06.195Z,99.90
2018-05-02T07:04:37.536Z,99.90
2018-05-02T07:07:05.066Z,99.90
2018-05-02T07:09:32.557Z,99.90
2018-05-02T07:12:00.055Z,99.90
2018-05-02T07:14:28.288Z,99.10
2018-05-02T07:16:55.792Z,99.10
2018-05-02T07:19:23.263Z,98.70
2018-05-02T07:21:50.779Z,96.50
2018-05-02T07:24:18.269Z,94.60
2018-05-02T07:26:45.746Z,92.80
2018-05-02T07:29:13.273Z,90.10
2018-05-02T07:31:41.537Z,73.60
2018-05-02T07:34:09.820Z,69.90
2018-05-02T07:36:38.062Z,65.90
2018-05-02T07:39:05.607Z,65.90
2018-05-02T07:41:33.095Z,59.00
2018-05-02T07:44:00.597Z,57.80
2018-05-02T07:46:28.088Z,55.00
2018-05-02T07:48:55.608Z,55.40
2018-05-02T07:51:23.113Z,52.60
2018-05-02T07:53:50.674Z,52.70
2018-05-02T07:56:18.152Z,49.20
2018-05-02T07:58:46.468Z,47.60
2018-05-02T08:01:13.924Z,47.60
2018-05-02T08:03:41.444Z,46.70
2018-05-02T08:06:09.698Z,44.30
2018-05-02T08:08:37.206Z,44.20
2018-05-02T08:11:04.754Z,44.80
2018-05-02T08:13:32.336Z,45.10
2018-05-02T08:15:59.801Z,43.90
2018-05-02T08:18:27.287Z,45.00
2018-05-02T08:20:55.587Z,42.20
2018-05-02T08:23:23.081Z,42.20
2018-05-02T08:25:50.586Z,41.50
2018-05-02T08:28:18.054Z,41.30
2018-05-02T08:30:45.591Z,41.90
2018-05-02T08:33:13.075Z,40.10
2018-05-02T08:35:40.585Z,39.20
2018-05-02T08:38:08.051Z,39.60
2018-05-02T08:40:35.644Z,39.90
2018-05-02T08:43:03.114Z,39.90
2018-05-02T08:45:31.403Z,39.70
2018-05-02T08:47:59.645Z,40.00
2018-05-02T08:50:27.144Z,39.90
2018-05-02T08:52:54.631Z,38.00
2018-05-02T08:55:22.179Z,39.40
2018-05-02T08:57:49.683Z,39.60
2018-05-02T09:00:17.166Z,39.40
2018-05-02T09:02:45.416Z,38.00
2018-05-02T09:05:12.889Z,38.00
2018-05-02T09:07:41.158Z,34.10
2018-05-02T09:10:08.634Z,34.10
2018-05-02T09:12:36.898Z,33.70
2018-05-02T09:15:04.377Z,33.60
2018-05-02T09:17:31.895Z,34.50
2018-05-02T09:19:59.362Z,34.30
2018-05-02T09:22:26.871Z,34.60
2018-05-02T09:24:54.349Z,34.30
2018-05-02T09:27:21.852Z,33.60
2018-05-02T09:29:50.085Z,33.70
2018-05-02T09:32:17.648Z,33.60
2018-05-02T09:34:45.136Z,34.10
2018-05-02T09:37:13.405Z,33.40
2018-05-02T09:39:40.891Z,33.40
2018-05-02T09:42:09.202Z,32.60
2018-05-02T09:44:36.692Z,32.50
2018-05-02T09:47:04.169Z,32.20
2018-05-02T09:49:32.454Z,31.90
2018-05-02T09:52:00.715Z,30.80
2018-05-02T09:54:28.986Z,30.10
2018-05-02T09:56:56.482Z,30.00
2018-05-02T09:59:24.014Z,31.10
2018-05-02T10:01:52.266Z,29.90
2018-05-02T10:04:19.763Z,29.90
2018-05-02T10:06:47.247Z,29.80
2018-05-02T10:09:14.767Z,30.30
2018-05-02T10:11:43.036Z,29.20
2018-05-02T10:14:11.289Z,29.00
2018-05-02T10:16:38.765Z,29.00
2018-05-02T10:19:06.257Z,29.00
2018-05-02T10:21:33.755Z,30.00
2018-05-02T10:24:01.259Z,29.50
2018-05-02T10:26:28.772Z,28.40
2018-05-02T10:28:56.312Z,28.20
2018-05-02T10:31:23.779Z,28.60
2018-05-02T10:33:51.248Z,28.60
2018-05-02T10:36:18.755Z,27.80
2018-05-02T10:38:46.236Z,30.00
2018-05-02T10:41:13.728Z,30.60
2018-05-02T10:43:41.224Z,29.60
2018-05-02T10:46:08.743Z,28.80
2018-05-02T10:48:36.206Z,29.10
2018-05-02T10:51:03.723Z,29.50
2018-05-02T10:53:31.258Z,29.30
2018-05-02T10:55:58.787Z,30.00
2018-05-02T10:58:26.253Z,29.70
2018-05-02T11:00:55.376Z,29.90
2018-05-02T11:03:22.868Z,30.20
2018-05-02T11:05:50.429Z,30.80
2018-05-02T11:08:17.955Z,30.10
2018-05-02T11:10:45.437Z,30.50
2018-05-02T11:13:12.927Z,31.00
2018-05-02T11:15:40.421Z,31.50
2018-05-02T11:18:07.943Z,31.10
2018-05-02T11:20:35.428Z,30.20
2018-05-02T11:23:02.947Z,30.20
2018-05-02T11:25:30.442Z,30.60
2018-05-02T11:27:58.743Z,29.90
2018-05-02T11:30:26.240Z,29.90
2018-05-02T11:32:53.734Z,29.90
2018-05-02T11:35:21.998Z,30.80
2018-05-02T11:37:49.554Z,30.80
2018-05-02T11:40:17.126Z,31.10
2018-05-02T11:42:45.404Z,30.20
2018-05-02T11:45:12.891Z,30.20
2018-05-02T11:47:40.429Z,30.70
2018-05-02T11:50:07.919Z,31.20
2018-05-02T11:52:35.435Z,31.50
2018-05-02T11:55:03.687Z,31.40
2018-05-02T11:57:31.220Z,31.40
2018-05-02T11:59:58.725Z,31.20
2018-05-02T12:02:26.977Z,32.10
2018-05-02T12:04:54.470Z,31.40
2018-05-02T12:07:22.797Z,32.40
2018-05-02T12:09:50.318Z,32.40
2018-05-02T12:12:17.806Z,32.50
2018-05-02T12:14:45.305Z,32.40
2018-05-02T12:17:12.789Z,32.70
2018-05-02T12:19:40.286Z,32.90
2018-05-02T12:22:07.749Z,32.50
2018-05-02T12:24:35.242Z,33.10
2018-05-02T12:27:03.490Z,34.00
2018-05-02T12:29:31.000Z,33.90
2018-05-02T12:31:58.553Z,34.00
2018-05-02T12:34:26.152Z,34.10
2018-05-02T12:36:53.695Z,33.90
2018-05-02T12:39:21.202Z,34.10
2018-05-02T12:41:48.700Z,34.50
2018-05-02T12:44:16.229Z,35.00
2018-05-02T12:46:43.733Z,35.50
2018-05-02T12:49:11.247Z,35.80
2018-05-02T12:51:38.723Z,35.90
2018-05-02T12:54:06.221Z,35.90
2018-05-02T12:56:33.725Z,35.90
2018-05-02T12:59:01.282Z,36.00
2018-05-02T13:01:29.542Z,35.40
2018-05-02T13:03:57.016Z,35.40
2018-05-02T13:06:25.311Z,34.60
2018-05-02T13:08:52.804Z,35.20
2018-05-02T13:11:20.317Z,33.50
2018-05-02T13:13:48.565Z,33.60
2018-05-02T13:16:16.144Z,33.50
2018-05-02T13:18:44.426Z,34.40
2018-05-02T13:21:11.978Z,34.40
2018-05-02T13:23:40.294Z,35.00
2018-05-02T13:26:07.807Z,35.00
2018-05-02T13:28:35.280Z,34.70
2018-05-02T13:31:03.548Z,33.70
2018-05-02T13:33:31.813Z,33.70
2018-05-02T13:36:00.122Z,33.70
2018-05-02T13:38:27.596Z,33.80
2018-05-02T13:40:55.080Z,33.80
2018-05-02T13:43:22.584Z,33.70
2018-05-02T13:45:50.825Z,35.00
2018-05-02T13:48:19.265Z,34.90
2018-05-02T13:50:46.757Z,35.00
2018-05-02T13:53:14.257Z,35.70
2018-05-02T13:55:42.532Z,36.40
2018-05-02T13:58:10.824Z,36.70
2018-05-02T14:00:38.329Z,36.60
2018-05-02T14:03:05.829Z,36.00
2018-05-02T14:05:34.069Z,34.80
2018-05-02T14:08:01.609Z,34.80
2018-05-02T14:10:29.137Z,34.40
2018-05-02T14:12:56.643Z,33.90
2018-05-02T14:15:24.191Z,34.30
2018-05-02T14:17:51.715Z,33.90
2018-05-02T14:20:19.194Z,32.70
2018-05-02T14:22:46.723Z,33.50
2018-05-02T14:25:14.204Z,33.20
2018-05-02T14:27:41.755Z,33.20
2018-05-02T14:30:09.262Z,33.40
2018-05-02T14:32:36.779Z,33.20
2018-05-02T14:35:04.291Z,34.00
2018-05-02T14:37:32.529Z,34.50
2018-05-02T14:40:00.037Z,33.70
2018-05-02T14:42:28.283Z,35.10
2018-05-02T14:44:55.805Z,35.10
2018-05-02T14:47:23.293Z,35.80
2018-05-02T14:49:50.799Z,36.10
2018-05-02T14:52:18.330Z,35.90
2018-05-02T14:54:45.866Z,36.30
2018-05-02T14:57:13.336Z,36.40
2018-05-02T14:59:40.930Z,36.50
2018-05-02T15:02:09.286Z,36.40
2018-05-02T15:04:36.682Z,36.40
2018-05-02T15:07:04.156Z,36.30
2018-05-02T15:09:31.660Z,35.40
2018-05-02T15:11:59.904Z,36.20
2018-05-02T15:14:27.600Z,36.20
2018-05-02T15:16:55.868Z,36.50
2018-05-02T15:19:23.348Z,36.40
2018-05-02T15:21:51.616Z,36.00
2018-05-02T15:24:19.877Z,36.40
2018-05-02T15:26:47.402Z,36.40
2018-05-02T15:29:14.890Z,36.60
2018-05-02T15:31:42.389Z,37.00
2018-05-02T15:34:09.865Z,37.30
2018-05-02T15:36:37.400Z,37.40
2018-05-02T15:39:05.634Z,37.50
2018-05-02T15:41:33.121Z,37.90
2018-05-02T15:44:01.384Z,38.20
2018-05-02T15:46:29.638Z,38.10
2018-05-02T15:48:57.128Z,38.10
2018-05-02T15:51:25.388Z,38.10
2018-05-02T15:53:52.874Z,38.10
2018-05-02T15:56:20.393Z,38.20
2018-05-02T15:58:48.663Z,38.10
2018-05-02T16:01:16.198Z,38.10
2018-05-02T16:03:43.703Z,38.40
2018-05-02T16:06:11.953Z,38.00
2018-05-02T16:08:39.470Z,38.00
2018-05-02T16:11:07.305Z,38.50
2018-05-02T16:13:35.612Z,39.00
2018-05-02T16:16:03.098Z,38.90
2018-05-02T16:18:30.654Z,39.20
2018-05-02T16:20:58.147Z,39.00
2018-05-02T16:23:25.673Z,39.40
2018-05-02T16:25:53.931Z,38.90
2018-05-02T16:28:21.437Z,38.90
2018-05-02T16:30:48.907Z,39.20
2018-05-02T16:33:17.297Z,39.00
2018-05-02T16:35:44.715Z,38.90
2018-05-02T16:38:12.233Z,38.70
2018-05-02T16:40:39.709Z,39.00
2018-05-02T16:43:07.233Z,38.80
2018-05-02T16:45:34.715Z,39.40
2018-05-02T16:48:02.233Z,40.40
2018-05-02T16:50:30.509Z,40.50
2018-05-02T16:52:58.773Z,40.80
2018-05-02T16:55:27.079Z,41.20
2018-05-02T16:57:54.564Z,41.20
2018-05-02T17:00:22.073Z,41.90
2018-05-02T17:02:49.550Z,41.40
2018-05-02T17:05:17.060Z,41.90
2018-05-02T17:07:45.380Z,42.20
2018-05-02T17:10:13.660Z,42.00
2018-05-02T17:12:41.892Z,42.40
2018-05-02T17:15:09.459Z,42.40
2018-05-02T17:17:36.974Z,43.00
2018-05-02T17:20:04.483Z,43.40
2018-05-02T17:22:31.986Z,43.70
2018-05-02T17:24:59.513Z,44.60
2018-05-02T17:27:27.754Z,45.80
2018-05-02T17:29:55.277Z,45.30
2018-05-02T17:32:22.769Z,45.10
2018-05-02T17:34:50.281Z,44.80
2018-05-02T17:37:17.788Z,45.30
2018-05-02T17:39:45.274Z,45.40
2018-05-02T17:42:13.097Z,45.80
2018-05-02T17:44:40.584Z,46.30
2018-05-02T17:47:08.092Z,47.40
2018-05-02T17:49:35.616Z,48.00
2018-05-02T17:52:03.147Z,48.50
2018-05-02T17:54:30.640Z,49.20
2018-05-02T17:56:58.184Z,49.90
2018-05-02T17:59:25.681Z,50.50
2018-05-02T18:01:53.204Z,50.40
2018-05-02T18:04:21.475Z,57.70
2018-05-02T18:06:48.976Z,57.70
2018-05-02T18:09:16.455Z,72.10
2018-05-02T18:11:43.977Z,83.10
2018-05-02T18:14:12.221Z,89.00
2018-05-02T18:16:40.659Z,90.00
2018-05-02T18:19:08.179Z,90.00
2018-05-02T18:21:36.494Z,91.20
2018-05-02T18:24:04.740Z,91.70
2018-05-02T18:26:32.997Z,92.70
2018-05-02T18:29:00.507Z,92.70
2018-05-02T18:31:27.975Z,94.00
2018-05-02T18:33:55.486Z,94.20
2018-05-02T18:36:23.793Z,94.90
2018-05-02T18:38:51.274Z,94.80
2018-05-02T18:41:18.756Z,95.70
2018-05-02T18:43:46.267Z,95.70
2018-05-02T18:46:13.747Z,96.40
2018-05-02T18:48:41.252Z,97.20
2018-05-02T18:51:09.504Z,98.30
2018-05-02T18:53:37.012Z,98.30
2018-05-02T18:56:04.486Z,98.60
2018-05-02T18:58:32.032Z,99.00
2018-05-02T19:00:59.472Z,99.20
2018-05-02T19:03:27.009Z,99.20
2018-05-02T19:05:55.274Z,99.20
2018-05-02T19:08:22.756Z,99.20
2018-05-02T19:10:51.031Z,99.20
2018-05-02T19:13:19.301Z,99.50
2018-05-02T19:15:47.573Z,99.60
2018-05-02T19:18:21.464Z,99.70
2018-05-02T19:20:49.002Z,99.70
2018-05-02T19:23:16.477Z,99.70
2018-05-02T19:25:49.754Z,99.70
2018-05-02T19:28:17.392Z,99.70
2018-05-02T19:31:00.451Z,99.90
2018-05-02T19:33:33.579Z,99.90
2018-05-02T19:36:01.872Z,99.90
2018-05-02T19:38:29.353Z,99.90
2018-05-02T19:41:02.575Z,99.90
2018-05-02T19:43:35.813Z,99.90
2018-05-02T19:46:03.345Z,99.90
2018-05-02T19:48:31.591Z,99.90
2018-05-02T19:51:04.837Z,99.90
2018-05-02T19:53:32.303Z,99.90
2018-05-02T19:55:59.839Z,99.90
2018-05-02T19:58:28.090Z,99.90
2018-05-02T20:01:01.343Z,99.90
2018-05-02T20:03:28.879Z,99.90
2018-05-02T20:05:56.431Z,99.90
2018-05-02T20:08:42.425Z,99.90
2018-05-02T20:11:15.478Z,99.90
2018-05-02T20:13:48.619Z,99.90
2018-05-02T20:16:16.137Z,99.90
2018-05-02T20:18:43.668Z,99.90
2018-05-02T20:21:11.159Z,99.90
2018-05-02T20:23:39.427Z,99.90
2018-05-02T20:26:06.928Z,99.90
2018-05-02T20:28:34.412Z,99.90
2018-05-02T20:31:01.895Z,99.90
2018-05-02T20:33:30.184Z,99.90
2018-05-02T20:35:58.444Z,99.90
2018-05-02T20:38:25.969Z,99.90
2018-05-02T20:40:53.444Z,99.90
2018-05-02T20:43:21.700Z,99.90
2018-05-02T20:45:49.203Z,99.90
2018-05-02T20:48:16.719Z,99.90
2018-05-02T20:50:44.206Z,99.90
2018-05-02T20:53:11.709Z,99.90
2018-05-02T20:55:39.218Z,99.90
2018-05-02T20:58:06.711Z,99.90
2018-05-02T21:00:34.957Z,99.90
2018-05-02T21:03:02.473Z,99.90
2018-05-02T21:05:29.942Z,99.90
2018-05-02T21:07:57.436Z,99.90
2018-05-02T21:10:24.926Z,99.90
2018-05-02T21:12:52.414Z,99.90
2018-05-02T21:15:19.903Z,99.90
2018-05-02T21:17:47.378Z,99.90
2018-05-02T21:20:14.857Z,99.90
2018-05-02T21:22:42.330Z,99.90
2018-05-02T21:25:09.826Z,99.90
2018-05-02T21:27:37.307Z,99.90
2018-05-02T21:30:05.572Z,99.90
2018-05-02T21:32:33.052Z,99.90
2018-05-02T21:35:01.333Z,99.90
2018-05-02T21:37:29.564Z,99.90
2018-05-02T21:39:57.084Z,99.90
2018-05-02T21:42:24.607Z,99.90
2018-05-02T21:44:52.079Z,99.90
2018-05-02T21:47:20.343Z,99.90
2018-05-02T21:49:48.575Z,99.90
2018-05-02T21:52:16.116Z,99.90
2018-05-02T21:54:43.575Z,99.90
2018-05-02T21:57:11.090Z,99.90
2018-05-02T21:59:38.567Z,99.90
2018-05-02T22:02:06.845Z,99.90
2018-05-02T22:04:35.079Z,99.90
2018-05-02T22:07:02.585Z,99.90
2018-05-02T22:09:30.065Z,99.90
2018-05-02T22:11:57.580Z,99.90
2018-05-02T22:14:25.073Z,99.90
2018-05-02T22:16:52.598Z,99.90
2018-05-02T22:19:20.846Z,99.90
2018-05-02T22:21:48.390Z,99.90
2018-05-02T22:24:15.848Z,99.90
2018-05-02T22:26:43.324Z,99.90
2018-05-02T22:29:10.830Z,99.90
2018-05-02T22:31:38.320Z,99.90
2018-05-02T22:34:05.834Z,99.90
2018-05-02T22:36:34.075Z,99.90
2018-05-02T22:39:01.589Z,99.90
2018-05-02T22:41:29.049Z,99.90
2018-05-02T22:43:56.549Z,99.90
2018-05-02T22:46:24.030Z,99.90
2018-05-02T22:48:52.280Z,99.90
2018-05-02T22:51:19.759Z,99.90
2018-05-02T22:53:48.058Z,99.90
2018-05-02T22:56:15.558Z,99.90
2018-05-02T22:58:43.092Z,99.90
2018-05-02T23:01:10.551Z,99.90
2018-05-02T23:03:38.075Z,99.90
2018-05-02T23:06:05.550Z,99.90
2018-05-02T23:08:33.034Z,99.90
2018-05-02T23:11:00.536Z,99.90
2018-05-02T23:13:27.998Z,99.90
2018-05-02T23:15:56.267Z,99.90
2018-05-02T23:18:24.564Z,99.90
2018-05-02T23:20:52.047Z,99.90
2018-05-02T23:23:19.529Z,99.90
2018-05-02T23:25:47.025Z,99.90
2018-05-02T23:28:15.284Z,99.90
2018-05-02T23:30:42.765Z,99.90
2018-05-02T23:33:11.011Z,99.90
2018-05-02T23:35:38.493Z,99.90
2018-05-02T23:38:06.755Z,99.90
2018-05-02T23:40:34.252Z,99.90
2018-05-02T23:43:01.821Z,99.90
2018-05-02T23:45:29.330Z,99.90
2018-05-02T23:47:56.818Z,99.90
2018-05-02T23:50:25.088Z,99.90
2018-05-02T23:52:53.324Z,99.90
2018-05-02T23:55:20.816Z,99.90
2018-05-02T23:57:49.060Z,99.90
